createdAt,value
2019-05-03T00:00:35.261Z,9.11
2019-05-03T00:02:21.718Z,9.00
2019-05-03T00:03:26.326Z,8.96
2019-05-03T00:04:31.609Z,8.85
2019-05-03T00:05:37.887Z,8.80
2019-05-03T00:06:42.704Z,8.75
2019-05-03T00:07:48.881Z,8.73
2019-05-03T00:08:53.386Z,8.66
2019-05-03T00:09:58.094Z,8.65
2019-05-03T00:11:04.142Z,8.64
2019-05-03T00:12:08.654Z,8.64
2019-05-03T00:13:13.076Z,8.68
2019-05-03T00:14:18.050Z,8.65
2019-05-03T00:15:24.567Z,8.66
2019-05-03T00:16:36.334Z,8.62
2019-05-03T00:17:41.979Z,8.58
2019-05-03T00:18:47.752Z,8.58
2019-05-03T00:19:52.776Z,8.54
2019-05-03T00:20:57.259Z,8.50
2019-05-03T00:22:02.100Z,8.47
2019-05-03T00:23:06.894Z,8.44
2019-05-03T00:24:11.882Z,8.43
2019-05-03T00:25:16.391Z,8.42
2019-05-03T00:26:22.568Z,8.40
2019-05-03T00:27:27.113Z,8.34
2019-05-03T00:28:32.208Z,8.34
2019-05-03T00:29:36.723Z,8.25
2019-05-03T00:30:42.354Z,8.24
2019-05-03T00:31:46.840Z,8.22
2019-05-03T00:32:52.147Z,8.21
2019-05-03T00:33:59.310Z,8.16
2019-05-03T00:35:06.048Z,8.09
2019-05-03T00:36:15.107Z,8.09
2019-05-03T00:37:32.638Z,8.06
2019-05-03T00:38:36.614Z,8.02
2019-05-03T00:39:55.762Z,7.98
2019-05-03T00:41:01.850Z,7.96
2019-05-03T00:42:06.596Z,7.94
2019-05-03T00:43:11.610Z,7.89
2019-05-03T00:44:16.040Z,7.86
2019-05-03T00:45:22.098Z,7.88
2019-05-03T00:46:26.563Z,7.89
2019-05-03T00:47:32.824Z,7.84
2019-05-03T00:48:37.400Z,7.84
2019-05-03T00:49:42.609Z,7.83
2019-05-03T00:50:47.136Z,7.84
2019-05-03T00:51:51.761Z,7.82
2019-05-03T00:52:56.466Z,7.78
2019-05-03T00:54:02.065Z,7.78
2019-05-03T00:55:16.068Z,7.74
2019-05-03T00:56:13.748Z,7.70
2019-05-03T00:57:18.176Z,7.68
2019-05-03T00:58:22.626Z,7.68
2019-05-03T00:59:27.050Z,7.64
2019-05-03T01:00:32.627Z,7.63
2019-05-03T01:01:37.051Z,7.62
2019-05-03T01:02:42.354Z,7.64
2019-05-03T01:03:46.897Z,7.66
2019-05-03T01:04:51.819Z,7.65
2019-05-03T01:05:57.310Z,7.64
2019-05-03T01:07:02.303Z,7.67
2019-05-03T01:08:06.733Z,7.72
2019-05-03T01:09:15.556Z,7.77
2019-05-03T01:10:22.416Z,7.81
2019-05-03T01:11:26.448Z,7.78
2019-05-03T01:12:32.355Z,7.78
2019-05-03T01:13:37.007Z,7.81
2019-05-03T01:14:42.506Z,7.84
2019-05-03T01:15:51.864Z,7.88
2019-05-03T01:16:55.947Z,7.86
2019-05-03T01:18:02.010Z,7.89
2019-05-03T01:19:06.454Z,7.89
2019-05-03T01:20:11.985Z,7.84
2019-05-03T01:21:16.417Z,7.87
2019-05-03T01:22:22.590Z,7.86
2019-05-03T01:23:27.480Z,7.87
2019-05-03T01:24:32.367Z,7.90
2019-05-03T01:25:37.893Z,7.93
2019-05-03T01:26:42.319Z,7.96
2019-05-03T01:27:46.756Z,7.87
2019-05-03T01:28:52.143Z,7.90
2019-05-03T01:29:56.952Z,7.89
2019-05-03T01:31:02.513Z,7.86
2019-05-03T01:32:07.146Z,7.80
2019-05-03T01:33:12.129Z,7.80
2019-05-03T01:34:17.065Z,7.80
2019-05-03T01:35:21.942Z,7.77
2019-05-03T01:36:27.862Z,7.70
2019-05-03T01:37:32.296Z,7.75
2019-05-03T01:38:37.044Z,7.73
2019-05-03T01:39:42.164Z,7.72
2019-05-03T01:40:47.695Z,7.67
2019-05-03T01:41:52.150Z,7.65
2019-05-03T01:42:56.575Z,7.66
2019-05-03T01:44:01.926Z,7.65
2019-05-03T01:45:07.598Z,7.63
2019-05-03T01:46:12.094Z,7.70
2019-05-03T01:47:18.188Z,7.68
2019-05-03T01:48:27.231Z,7.67
2019-05-03T01:49:36.006Z,7.67
2019-05-03T01:50:44.486Z,7.68
2019-05-03T01:51:53.224Z,7.63
2019-05-03T01:52:59.299Z,7.64
2019-05-03T01:54:03.809Z,7.65
2019-05-03T01:55:13.822Z,7.64
2019-05-03T01:56:15.847Z,7.60
2019-05-03T01:57:21.948Z,7.64
2019-05-03T01:58:26.590Z,7.61
2019-05-03T01:59:32.060Z,7.54
2019-05-03T02:00:36.650Z,7.64
2019-05-03T02:01:45.693Z,7.63
2019-05-03T02:03:01.676Z,7.53
2019-05-03T02:04:12.246Z,7.52
2019-05-03T02:05:18.722Z,7.50
2019-05-03T02:06:23.173Z,7.54
2019-05-03T02:07:27.587Z,7.46
2019-05-03T02:08:32.689Z,7.44
2019-05-03T02:09:37.260Z,7.42
2019-05-03T02:10:43.639Z,7.35
2019-05-03T02:11:48.144Z,7.33
2019-05-03T02:12:52.587Z,7.30
2019-05-03T02:13:57.015Z,7.26
2019-05-03T02:15:02.622Z,7.16
2019-05-03T02:16:07.010Z,7.12
2019-05-03T02:17:12.565Z,7.13
2019-05-03T02:18:17.974Z,7.07
2019-05-03T02:19:22.738Z,7.04
2019-05-03T02:20:27.445Z,7.02
2019-05-03T02:21:32.242Z,6.98
2019-05-03T02:22:36.673Z,6.98
2019-05-03T02:23:42.527Z,7.01
2019-05-03T02:24:47.150Z,6.91
2019-05-03T02:25:58.366Z,6.89
2019-05-03T02:26:58.119Z,6.90
2019-05-03T02:28:02.844Z,6.80
2019-05-03T02:29:07.275Z,6.79
2019-05-03T02:30:14.480Z,6.76
2019-05-03T02:31:19.048Z,6.70
2019-05-03T02:32:23.469Z,6.65
2019-05-03T02:33:28.871Z,6.58
2019-05-03T02:34:33.309Z,6.55
2019-05-03T02:35:37.756Z,6.53
2019-05-03T02:36:42.895Z,6.56
2019-05-03T02:37:49.029Z,6.52
2019-05-03T02:38:53.812Z,6.48
2019-05-03T02:39:58.213Z,6.39
2019-05-03T02:41:03.119Z,6.44
2019-05-03T02:42:11.365Z,6.44
2019-05-03T02:43:16.556Z,6.40
2019-05-03T02:44:22.208Z,6.35
2019-05-03T02:45:28.302Z,6.31
2019-05-03T02:46:52.218Z,6.29
2019-05-03T02:48:01.116Z,6.29
2019-05-03T02:49:07.203Z,6.22
2019-05-03T02:50:16.441Z,6.20
2019-05-03T02:51:19.571Z,6.21
2019-05-03T02:52:37.026Z,6.16
2019-05-03T02:53:41.912Z,6.18
2019-05-03T02:54:46.601Z,6.17
2019-05-03T02:55:52.038Z,6.15
2019-05-03T02:56:56.531Z,6.13
2019-05-03T02:58:00.965Z,6.12
2019-05-03T02:59:06.227Z,6.11
2019-05-03T03:00:16.394Z,6.08
2019-05-03T03:01:20.752Z,6.08
2019-05-03T03:02:26.428Z,6.01
2019-05-03T03:03:32.410Z,6.02
2019-05-03T03:04:36.823Z,5.93
2019-05-03T03:05:41.609Z,6.01
2019-05-03T03:06:47.471Z,5.99
2019-05-03T03:07:55.687Z,6.01
2019-05-03T03:08:59.327Z,5.97
2019-05-03T03:10:06.398Z,5.95
2019-05-03T03:11:10.923Z,5.92
2019-05-03T03:12:16.089Z,5.92
2019-05-03T03:13:25.164Z,5.92
2019-05-03T03:14:30.806Z,5.88
2019-05-03T03:15:38.622Z,5.87
2019-05-03T03:16:45.598Z,5.87
2019-05-03T03:17:55.801Z,5.88
2019-05-03T03:19:02.338Z,5.87
2019-05-03T03:20:08.378Z,5.85
2019-05-03T03:21:16.274Z,5.87
2019-05-03T03:22:25.926Z,5.83
2019-05-03T03:23:35.503Z,5.83
2019-05-03T03:24:45.539Z,5.83
2019-05-03T03:25:51.534Z,5.82
2019-05-03T03:26:58.800Z,5.78
2019-05-03T03:28:05.334Z,5.75
2019-05-03T03:29:12.497Z,5.78
2019-05-03T03:30:37.893Z,5.75
2019-05-03T03:32:09.970Z,5.72
2019-05-03T03:33:17.523Z,5.68
2019-05-03T03:34:27.868Z,5.69
2019-05-03T03:35:31.988Z,5.71
2019-05-03T03:36:59.604Z,5.69
2019-05-03T03:37:56.024Z,5.65
2019-05-03T03:39:01.403Z,5.62
2019-05-03T03:40:07.945Z,5.65
2019-05-03T03:41:16.299Z,5.63
2019-05-03T03:42:22.006Z,5.66
2019-05-03T03:43:27.667Z,5.66
2019-05-03T03:44:32.656Z,5.63
2019-05-03T03:45:38.751Z,5.63
2019-05-03T03:46:45.528Z,5.61
2019-05-03T03:47:56.177Z,5.60
2019-05-03T03:49:01.157Z,5.63
2019-05-03T03:50:07.203Z,5.61
2019-05-03T03:51:15.537Z,5.69
2019-05-03T03:52:21.869Z,5.76
2019-05-03T03:53:26.769Z,5.76
2019-05-03T03:54:35.524Z,5.91
2019-05-03T03:55:42.478Z,5.87
2019-05-03T03:56:59.378Z,5.76
2019-05-03T03:57:58.875Z,5.71
2019-05-03T03:59:05.732Z,5.69
2019-05-03T04:00:10.899Z,5.68
2019-05-03T04:01:15.787Z,5.65
2019-05-03T04:02:20.700Z,5.65
2019-05-03T04:03:25.942Z,5.72
2019-05-03T04:04:31.184Z,5.71
2019-05-03T04:05:36.078Z,5.73
2019-05-03T04:06:41.943Z,5.71
2019-05-03T04:07:46.636Z,5.70
2019-05-03T04:08:51.375Z,5.69
2019-05-03T04:09:56.443Z,5.73
2019-05-03T04:11:01.021Z,5.69
2019-05-03T04:12:06.134Z,5.72
2019-05-03T04:13:12.546Z,5.74
2019-05-03T04:14:30.843Z,5.76
2019-05-03T04:15:45.277Z,5.74
2019-05-03T04:16:51.639Z,5.80
2019-05-03T04:18:05.604Z,5.77
2019-05-03T04:19:17.144Z,5.74
2019-05-03T04:20:22.102Z,5.78
2019-05-03T04:21:27.656Z,5.73
2019-05-03T04:22:32.092Z,5.78
2019-05-03T04:23:36.563Z,5.82
2019-05-03T04:24:40.997Z,5.81
2019-05-03T04:25:45.454Z,5.82
2019-05-03T04:26:51.518Z,5.79
2019-05-03T04:27:56.245Z,5.78
2019-05-03T04:29:01.174Z,5.81
2019-05-03T04:30:06.934Z,5.86
2019-05-03T04:31:11.369Z,5.85
2019-05-03T04:32:15.958Z,5.89
2019-05-03T04:33:20.468Z,5.96
2019-05-03T04:34:26.338Z,6.01
2019-05-03T04:35:30.883Z,5.99
2019-05-03T04:36:35.856Z,6.01
2019-05-03T04:37:40.316Z,6.02
2019-05-03T04:38:45.303Z,6.03
2019-05-03T04:39:49.974Z,6.03
2019-05-03T04:40:56.136Z,6.09
2019-05-03T04:42:00.943Z,6.05
2019-05-03T04:43:06.285Z,6.01
2019-05-03T04:44:11.694Z,6.06
2019-05-03T04:45:16.720Z,6.06
2019-05-03T04:46:25.807Z,6.08
2019-05-03T04:47:30.274Z,6.08
2019-05-03T04:48:35.804Z,6.08
2019-05-03T04:49:41.722Z,6.06
2019-05-03T04:50:46.655Z,6.03
2019-05-03T04:51:51.277Z,6.12
2019-05-03T04:52:56.731Z,6.05
2019-05-03T04:54:20.106Z,6.03
2019-05-03T04:55:26.708Z,6.01
2019-05-03T04:56:31.699Z,6.01
2019-05-03T04:57:44.911Z,5.99
2019-05-03T04:58:45.875Z,5.99
2019-05-03T04:59:50.157Z,6.02
2019-05-03T05:00:55.444Z,6.06
2019-05-03T05:02:00.154Z,6.03
2019-05-03T05:03:05.845Z,6.01
2019-05-03T05:04:11.476Z,6.03
2019-05-03T05:05:16.932Z,5.95
2019-05-03T05:06:21.705Z,5.94
2019-05-03T05:07:26.791Z,5.97
2019-05-03T05:08:32.742Z,6.01
2019-05-03T05:09:37.763Z,6.00
2019-05-03T05:10:45.219Z,6.12
2019-05-03T05:11:49.659Z,6.15
2019-05-03T05:12:55.096Z,6.05
2019-05-03T05:13:59.968Z,6.09
2019-05-03T05:15:07.022Z,6.04
2019-05-03T05:16:12.230Z,6.07
2019-05-03T05:17:18.872Z,6.05
2019-05-03T05:18:26.322Z,6.08
2019-05-03T05:19:50.129Z,6.12
2019-05-03T05:20:56.358Z,6.15
2019-05-03T05:22:03.965Z,6.32
2019-05-03T05:23:09.008Z,6.37
2019-05-03T05:24:15.156Z,6.51
2019-05-03T05:26:49.941Z,6.50
2019-05-03T05:28:12.561Z,6.40
2019-05-03T05:29:19.146Z,6.56
2019-05-03T05:30:25.228Z,6.58
2019-05-03T05:31:30.564Z,6.77
2019-05-03T05:32:35.110Z,6.81
2019-05-03T05:33:39.785Z,6.91
2019-05-03T05:34:45.940Z,6.88
2019-05-03T05:35:51.204Z,6.90
2019-05-03T05:36:55.630Z,6.89
2019-05-03T05:38:00.081Z,6.93
2019-05-03T05:39:06.143Z,7.01
2019-05-03T05:40:11.236Z,7.07
2019-05-03T05:41:15.778Z,7.18
2019-05-03T05:42:20.179Z,7.27
2019-05-03T05:43:25.491Z,7.30
2019-05-03T05:44:31.332Z,7.33
2019-05-03T05:45:35.759Z,7.46
2019-05-03T05:46:41.834Z,7.60
2019-05-03T05:48:05.160Z,7.60
2019-05-03T05:49:12.350Z,7.62
2019-05-03T05:50:18.736Z,7.74
2019-05-03T05:51:24.814Z,7.71
2019-05-03T05:52:29.778Z,7.78
2019-05-03T05:53:35.864Z,8.00
2019-05-03T05:54:42.092Z,8.17
2019-05-03T05:56:05.016Z,8.16
2019-05-03T05:57:21.513Z,8.27
2019-05-03T05:58:27.583Z,8.25
2019-05-03T05:59:45.914Z,8.37
2019-05-03T06:00:55.252Z,8.31
2019-05-03T06:02:02.291Z,8.06
2019-05-03T06:03:06.718Z,8.06
2019-05-03T06:04:11.189Z,8.01
2019-05-03T06:05:15.651Z,7.95
2019-05-03T06:06:27.696Z,7.97
2019-05-03T06:07:39.393Z,7.88
2019-05-03T06:08:48.143Z,8.00
2019-05-03T06:10:05.146Z,7.91
2019-05-03T06:11:14.873Z,7.87
2019-05-03T06:12:36.306Z,8.06
2019-05-03T06:13:44.664Z,8.18
2019-05-03T06:14:54.441Z,8.14
2019-05-03T06:16:00.577Z,8.22
2019-05-03T06:17:06.730Z,8.25
2019-05-03T06:18:22.377Z,8.39
2019-05-03T06:19:37.182Z,8.36
2019-05-03T06:20:45.174Z,8.50
2019-05-03T06:21:57.024Z,8.69
2019-05-03T06:23:03.100Z,8.59
2019-05-03T06:24:11.132Z,8.60
2019-05-03T06:25:17.217Z,8.45
2019-05-03T06:26:38.702Z,8.23
2019-05-03T06:27:42.712Z,8.28
2019-05-03T06:28:47.068Z,8.32
2019-05-03T06:29:54.510Z,8.33
2019-05-03T06:31:09.484Z,8.39
2019-05-03T06:32:18.247Z,8.55
2019-05-03T06:33:24.480Z,8.87
2019-05-03T06:34:29.060Z,8.81
2019-05-03T06:35:34.563Z,8.71
2019-05-03T06:36:39.987Z,8.56
2019-05-03T06:37:47.335Z,8.70
2019-05-03T06:38:51.763Z,8.80
2019-05-03T06:39:56.202Z,8.63
2019-05-03T06:41:00.653Z,8.62
2019-05-03T06:42:05.306Z,8.52
2019-05-03T06:43:12.913Z,8.50
2019-05-03T06:44:19.265Z,8.79
2019-05-03T06:45:22.032Z,9.16
2019-05-03T06:46:46.085Z,9.21
2019-05-03T06:47:50.724Z,9.03
2019-05-03T06:48:55.173Z,9.12
2019-05-03T06:49:59.616Z,9.07
2019-05-03T06:51:10.447Z,9.27
2019-05-03T06:52:11.291Z,9.22
2019-05-03T06:53:15.721Z,9.08
2019-05-03T06:54:26.904Z,9.29
2019-05-03T06:55:26.284Z,9.42
2019-05-03T06:56:30.735Z,9.57
2019-05-03T06:57:40.032Z,9.27
2019-05-03T06:58:42.280Z,9.21
2019-05-03T06:59:50.757Z,9.21
2019-05-03T07:00:57.106Z,9.05
2019-05-03T07:02:05.606Z,9.10
2019-05-03T07:03:11.819Z,8.88
2019-05-03T07:04:17.889Z,8.87
2019-05-03T07:07:08.101Z,9.22
2019-05-03T07:08:15.241Z,8.82
2019-05-03T07:09:21.442Z,8.61
2019-05-03T07:10:27.516Z,8.93
2019-05-03T07:11:31.968Z,9.00
2019-05-03T07:12:40.757Z,9.14
2019-05-03T07:13:45.259Z,9.29
2019-05-03T07:14:50.495Z,9.64
2019-05-03T07:15:56.032Z,9.80
2019-05-03T07:17:01.176Z,9.94
2019-05-03T07:18:05.972Z,9.95
2019-05-03T07:19:10.416Z,9.81
2019-05-03T07:20:14.928Z,9.90
2019-05-03T07:21:19.363Z,9.90
2019-05-03T07:22:24.450Z,10.12
2019-05-03T07:23:29.024Z,10.11
2019-05-03T07:24:38.777Z,10.30
2019-05-03T07:25:39.601Z,10.58
2019-05-03T07:26:44.810Z,10.08
2019-05-03T07:27:49.479Z,9.79
2019-05-03T07:28:54.599Z,9.79
2019-05-03T07:29:59.244Z,9.52
2019-05-03T07:31:04.803Z,9.43
2019-05-03T07:32:09.459Z,9.40
2019-05-03T07:33:15.842Z,9.35
2019-05-03T07:34:20.276Z,9.11
2019-05-03T07:35:25.251Z,9.14
2019-05-03T07:36:29.729Z,9.12
2019-05-03T07:37:34.877Z,9.36
2019-05-03T07:38:39.721Z,9.70
2019-05-03T07:39:45.279Z,9.95
2019-05-03T07:40:49.765Z,10.28
2019-05-03T07:41:55.119Z,10.43
2019-05-03T07:42:59.714Z,10.42
2019-05-03T07:44:05.372Z,10.56
2019-05-03T07:45:10.176Z,10.79
2019-05-03T07:46:14.842Z,10.37
2019-05-03T07:47:19.323Z,10.86
2019-05-03T07:48:25.520Z,10.86
2019-05-03T07:49:29.917Z,10.83
2019-05-03T07:50:35.737Z,10.10
2019-05-03T07:51:41.332Z,10.08
2019-05-03T07:52:45.773Z,10.13
2019-05-03T07:53:50.229Z,10.09
2019-05-03T07:54:55.204Z,10.33
2019-05-03T07:56:01.321Z,10.33
2019-05-03T07:57:07.395Z,10.09
2019-05-03T07:58:15.006Z,10.09
2019-05-03T07:59:19.499Z,10.17
2019-05-03T08:00:25.713Z,10.19
2019-05-03T08:01:31.783Z,10.19
2019-05-03T08:02:36.286Z,10.02
2019-05-03T08:03:40.752Z,9.84
2019-05-03T08:04:45.822Z,10.05
2019-05-03T08:05:50.279Z,10.10
2019-05-03T08:06:54.998Z,10.29
2019-05-03T08:07:59.480Z,10.80
2019-05-03T08:09:06.985Z,11.04
2019-05-03T08:10:15.323Z,11.21
2019-05-03T08:11:19.794Z,11.10
2019-05-03T08:12:24.754Z,11.14
2019-05-03T08:13:29.650Z,11.14
2019-05-03T08:14:35.673Z,11.35
2019-05-03T08:15:40.303Z,11.46
2019-05-03T08:16:45.607Z,11.62
2019-05-03T08:17:50.257Z,11.58
2019-05-03T08:18:55.857Z,11.47
2019-05-03T08:20:00.712Z,11.08
2019-05-03T08:21:05.788Z,10.85
2019-05-03T08:22:10.446Z,10.36
2019-05-03T08:23:26.215Z,10.36
2019-05-03T08:24:22.021Z,10.42
2019-05-03T08:25:26.837Z,10.54
2019-05-03T08:26:31.268Z,10.78
2019-05-03T08:27:35.702Z,11.14
2019-05-03T08:28:40.153Z,11.49
2019-05-03T08:29:45.361Z,11.32
2019-05-03T08:31:04.784Z,11.45
2019-05-03T08:32:27.748Z,11.50
2019-05-03T08:33:45.671Z,11.51
2019-05-03T08:34:52.732Z,11.50
2019-05-03T08:35:57.181Z,10.71
2019-05-03T08:37:05.013Z,10.78
2019-05-03T08:38:09.729Z,10.75
2019-05-03T08:39:15.839Z,10.73
2019-05-03T08:40:21.476Z,11.06
2019-05-03T08:41:30.595Z,11.15
2019-05-03T08:42:35.997Z,11.29
2019-05-03T08:43:40.745Z,11.52
2019-05-03T08:44:45.395Z,11.92
2019-05-03T08:45:50.112Z,11.93
2019-05-03T08:46:56.408Z,12.16
2019-05-03T08:48:01.905Z,12.21
2019-05-03T08:49:06.370Z,12.15
2019-05-03T08:50:10.946Z,11.94
2019-05-03T08:51:15.750Z,11.85
2019-05-03T08:52:20.186Z,12.10
2019-05-03T08:53:25.704Z,12.11
2019-05-03T08:54:31.235Z,12.10
2019-05-03T08:55:35.680Z,12.09
2019-05-03T08:56:40.116Z,11.69
2019-05-03T08:57:44.900Z,11.90
2019-05-03T08:58:49.462Z,11.60
2019-05-03T08:59:54.939Z,11.84
2019-05-03T09:00:59.727Z,11.90
2019-05-03T09:02:14.022Z,11.59
2019-05-03T09:03:10.750Z,11.71
2019-05-03T09:04:15.510Z,12.00
2019-05-03T09:05:20.147Z,12.53
2019-05-03T09:06:24.862Z,12.73
2019-05-03T09:07:29.392Z,12.24
2019-05-03T09:08:35.381Z,12.11
2019-05-03T09:09:41.685Z,11.72
2019-05-03T09:10:59.356Z,11.69
2019-05-03T09:12:04.775Z,11.62
2019-05-03T09:13:20.037Z,11.84
2019-05-03T09:14:28.660Z,12.13
2019-05-03T09:15:30.632Z,11.92
2019-05-03T09:16:35.560Z,11.53
2019-05-03T09:17:40.079Z,12.06
2019-05-03T09:18:45.411Z,12.25
2019-05-03T09:19:50.032Z,12.63
2019-05-03T09:20:55.463Z,12.87
2019-05-03T09:22:00.094Z,13.14
2019-05-03T09:23:05.471Z,13.32
2019-05-03T09:24:09.988Z,13.08
2019-05-03T09:25:15.602Z,12.86
2019-05-03T09:26:20.391Z,12.82
2019-05-03T09:27:24.877Z,12.18
2019-05-03T09:28:29.402Z,11.68
2019-05-03T09:29:43.196Z,11.45
2019-05-03T09:30:40.987Z,11.17
2019-05-03T09:31:45.421Z,11.08
2019-05-03T09:32:49.884Z,11.16
2019-05-03T09:33:54.967Z,11.30
2019-05-03T09:34:59.772Z,11.63
2019-05-03T09:36:05.381Z,12.10
2019-05-03T09:37:09.907Z,12.26
2019-05-03T09:38:15.050Z,12.16
2019-05-03T09:39:19.552Z,12.71
2019-05-03T09:40:24.631Z,12.77
2019-05-03T09:41:29.487Z,12.56
2019-05-03T09:42:35.212Z,12.38
2019-05-03T09:43:39.739Z,12.56
2019-05-03T09:44:45.069Z,12.70
2019-05-03T09:45:49.607Z,12.68
2019-05-03T09:46:54.961Z,12.61
2019-05-03T09:48:00.624Z,12.49
2019-05-03T09:49:13.363Z,12.21
2019-05-03T09:50:12.043Z,12.15
2019-05-03T09:51:16.779Z,12.20
2019-05-03T09:52:21.213Z,12.00
2019-05-03T09:53:27.640Z,11.84
2019-05-03T09:54:39.641Z,11.92
2019-05-03T09:55:44.857Z,11.77
2019-05-03T09:56:59.215Z,12.41
2019-05-03T09:58:05.523Z,13.27
2019-05-03T09:59:11.186Z,13.62
2019-05-03T10:00:17.832Z,13.05
2019-05-03T10:01:22.358Z,13.18
2019-05-03T10:02:26.785Z,12.74
2019-05-03T10:03:31.224Z,12.36
2019-05-03T10:04:36.584Z,12.00
2019-05-03T10:05:41.342Z,11.75
2019-05-03T10:06:45.794Z,11.79
2019-05-03T10:07:50.223Z,11.86
2019-05-03T10:08:54.663Z,11.76
2019-05-03T10:09:59.168Z,11.98
2019-05-03T10:11:15.118Z,11.96
2019-05-03T10:12:20.918Z,11.91
2019-05-03T10:13:27.109Z,12.22
2019-05-03T10:14:31.487Z,12.40
2019-05-03T10:15:40.777Z,12.95
2019-05-03T10:17:05.419Z,12.62
2019-05-03T10:18:12.541Z,13.05
2019-05-03T10:19:16.970Z,12.59
2019-05-03T10:20:25.025Z,12.19
2019-05-03T10:21:30.532Z,11.77
2019-05-03T10:22:35.319Z,11.65
2019-05-03T10:23:39.824Z,11.54
2019-05-03T10:24:45.228Z,11.41
2019-05-03T10:25:49.739Z,11.19
2019-05-03T10:26:55.208Z,11.39
2019-05-03T10:27:59.987Z,11.60
2019-05-03T10:29:05.495Z,11.97
2019-05-03T10:30:13.250Z,12.61
2019-05-03T10:31:16.227Z,13.32
2019-05-03T10:32:32.482Z,13.38
2019-05-03T10:33:56.704Z,13.17
2019-05-03T10:35:02.789Z,13.89
2019-05-03T10:36:07.217Z,13.76
2019-05-03T10:37:15.149Z,13.86
2019-05-03T10:38:19.896Z,13.47
2019-05-03T10:39:26.287Z,13.82
2019-05-03T10:40:30.791Z,13.54
2019-05-03T10:41:35.225Z,13.06
2019-05-03T10:42:40.100Z,12.91
2019-05-03T10:43:45.227Z,12.66
2019-05-03T10:44:49.841Z,12.55
2019-05-03T10:45:55.804Z,13.16
2019-05-03T10:47:01.471Z,13.47
2019-05-03T10:48:05.972Z,13.49
2019-05-03T10:49:10.688Z,13.70
2019-05-03T10:50:15.668Z,13.23
2019-05-03T10:51:20.232Z,12.76
2019-05-03T10:52:28.732Z,12.78
2019-05-03T10:53:35.255Z,12.78
2019-05-03T10:54:39.756Z,12.90
2019-05-03T10:55:45.825Z,13.13
2019-05-03T10:56:51.922Z,13.34
2019-05-03T10:58:07.247Z,13.09
2019-05-03T10:59:12.265Z,12.99
2019-05-03T11:00:44.264Z,12.61
2019-05-03T11:01:27.522Z,12.65
2019-05-03T11:02:35.263Z,12.36
2019-05-03T11:03:39.744Z,12.15
2019-05-03T11:04:46.126Z,12.23
2019-05-03T11:05:50.312Z,12.59
2019-05-03T11:06:55.065Z,12.66
2019-05-03T11:07:59.963Z,12.49
2019-05-03T11:09:05.965Z,12.37
2019-05-03T11:10:11.757Z,12.18
2019-05-03T11:11:16.215Z,12.17
2019-05-03T11:12:20.662Z,12.46
2019-05-03T11:13:26.447Z,12.44
2019-05-03T11:14:31.387Z,12.33
2019-05-03T11:15:35.818Z,12.66
2019-05-03T11:16:40.251Z,12.18
2019-05-03T11:17:45.501Z,12.70
2019-05-03T11:18:50.984Z,12.71
2019-05-03T11:19:55.431Z,12.53
2019-05-03T11:20:59.847Z,12.82
2019-05-03T11:22:05.512Z,12.73
2019-05-03T11:23:10.173Z,12.64
2019-05-03T11:24:14.922Z,12.75
2019-05-03T11:25:19.692Z,13.07
2019-05-03T11:26:25.245Z,13.05
2019-05-03T11:27:31.793Z,12.89
2019-05-03T11:28:37.216Z,12.89
2019-05-03T11:29:41.650Z,13.04
2019-05-03T11:30:53.175Z,13.16
2019-05-03T11:32:09.253Z,13.10
2019-05-03T11:33:15.278Z,13.25
2019-05-03T11:34:22.707Z,13.63
2019-05-03T11:35:35.092Z,13.70
2019-05-03T11:36:47.220Z,14.08
2019-05-03T11:37:59.490Z,14.65
2019-05-03T11:39:05.160Z,13.49
2019-05-03T11:40:10.498Z,14.22
2019-05-03T11:41:19.200Z,14.36
2019-05-03T11:42:22.025Z,14.29
2019-05-03T11:43:26.479Z,14.22
2019-05-03T11:44:40.124Z,14.16
2019-05-03T11:45:44.965Z,14.54
2019-05-03T11:46:49.463Z,14.54
2019-05-03T11:47:55.070Z,14.94
2019-05-03T11:48:59.643Z,15.64
2019-05-03T11:50:06.304Z,15.48
2019-05-03T11:51:10.736Z,15.59
2019-05-03T11:52:16.055Z,15.93
2019-05-03T11:53:21.316Z,15.70
2019-05-03T11:54:26.030Z,15.85
2019-05-03T11:55:30.477Z,15.47
2019-05-03T11:56:35.948Z,14.90
2019-05-03T11:57:40.422Z,14.53
2019-05-03T11:58:45.662Z,14.63
2019-05-03T11:59:51.323Z,14.62
2019-05-03T12:01:15.950Z,14.51
2019-05-03T12:02:17.399Z,13.95
2019-05-03T12:03:44.871Z,13.87
2019-05-03T12:04:48.672Z,14.13
2019-05-03T12:05:55.187Z,14.19
2019-05-03T12:06:59.805Z,14.02
2019-05-03T12:08:05.406Z,13.59
2019-05-03T12:09:10.047Z,13.70
2019-05-03T12:10:30.877Z,13.33
2019-05-03T12:11:21.451Z,13.13
2019-05-03T12:12:29.489Z,13.37
2019-05-03T12:13:34.040Z,13.14
2019-05-03T12:14:38.467Z,12.76
2019-05-03T12:15:44.533Z,12.70
2019-05-03T12:17:18.058Z,12.67
2019-05-03T12:18:01.688Z,12.46
2019-05-03T12:19:16.602Z,12.18
2019-05-03T12:20:17.225Z,12.18
2019-05-03T12:21:21.190Z,12.14
2019-05-03T12:22:26.651Z,12.08
2019-05-03T12:23:32.401Z,12.01
2019-05-03T12:24:37.894Z,11.76
2019-05-03T12:25:45.651Z,11.60
2019-05-03T12:26:48.787Z,11.69
2019-05-03T12:27:53.223Z,11.65
2019-05-03T12:28:57.680Z,11.76
2019-05-03T12:30:02.197Z,12.00
2019-05-03T12:31:07.407Z,11.95
2019-05-03T12:32:14.326Z,12.39
2019-05-03T12:33:18.714Z,12.71
2019-05-03T12:34:25.465Z,12.62
2019-05-03T12:35:29.613Z,12.60
2019-05-03T12:36:38.838Z,12.86
2019-05-03T12:37:41.261Z,12.76
2019-05-03T12:38:45.981Z,12.94
2019-05-03T12:39:50.440Z,13.00
2019-05-03T12:40:55.845Z,12.78
2019-05-03T12:42:00.288Z,12.59
2019-05-03T12:43:06.068Z,12.66
2019-05-03T12:44:10.695Z,12.52
2019-05-03T12:45:15.409Z,12.69
2019-05-03T12:46:19.876Z,12.60
2019-05-03T12:47:25.302Z,12.62
2019-05-03T12:48:30.685Z,12.54
2019-05-03T12:49:35.870Z,12.65
2019-05-03T12:50:41.011Z,12.81
2019-05-03T12:51:45.670Z,12.54
2019-05-03T12:52:50.774Z,12.18
2019-05-03T12:53:55.317Z,12.34
2019-05-03T12:54:59.781Z,12.72
2019-05-03T12:56:11.389Z,12.67
2019-05-03T12:57:10.991Z,12.40
2019-05-03T12:58:15.702Z,12.17
2019-05-03T12:59:21.779Z,12.37
2019-05-03T13:00:30.701Z,12.48
2019-05-03T13:01:45.533Z,12.47
2019-05-03T13:02:55.062Z,12.99
2019-05-03T13:04:01.357Z,12.83
2019-05-03T13:05:06.633Z,12.71
2019-05-03T13:06:11.069Z,12.44
2019-05-03T13:07:34.778Z,12.76
2019-05-03T13:08:42.835Z,12.94
2019-05-03T13:09:47.318Z,13.35
2019-05-03T13:10:51.751Z,13.30
2019-05-03T13:11:59.140Z,13.41
2019-05-03T13:13:02.971Z,13.21
2019-05-03T13:14:07.731Z,12.81
2019-05-03T13:15:14.402Z,12.89
2019-05-03T13:16:19.836Z,13.13
2019-05-03T13:17:36.917Z,13.22
2019-05-03T13:18:41.348Z,13.13
2019-05-03T13:19:45.809Z,13.36
2019-05-03T13:20:50.235Z,12.96
2019-05-03T13:21:55.616Z,12.72
2019-05-03T13:23:00.553Z,12.64
2019-05-03T13:24:05.578Z,12.27
2019-05-03T13:25:11.485Z,12.19
2019-05-03T13:26:17.233Z,12.22
2019-05-03T13:27:21.952Z,12.39
2019-05-03T13:28:26.383Z,12.30
2019-05-03T13:29:31.130Z,12.44
2019-05-03T13:30:35.591Z,12.30
2019-05-03T13:31:40.033Z,12.26
2019-05-03T13:32:45.632Z,12.31
2019-05-03T13:33:50.367Z,12.38
2019-05-03T13:34:55.772Z,12.28
2019-05-03T13:36:00.228Z,12.22
2019-05-03T13:37:04.657Z,12.44
2019-05-03T13:38:09.101Z,12.41
2019-05-03T13:39:14.622Z,12.14
2019-05-03T13:40:19.354Z,12.33
2019-05-03T13:41:25.017Z,11.90
2019-05-03T13:42:30.110Z,12.18
2019-05-03T13:43:34.896Z,12.15
2019-05-03T13:44:39.450Z,11.83
2019-05-03T13:45:44.977Z,11.97
2019-05-03T13:46:50.009Z,12.11
2019-05-03T13:47:55.295Z,11.95
2019-05-03T13:48:59.951Z,11.99
2019-05-03T13:50:06.831Z,12.23
2019-05-03T13:51:11.286Z,12.18
2019-05-03T13:52:15.726Z,12.09
2019-05-03T13:53:20.166Z,12.27
2019-05-03T13:54:25.523Z,12.50
2019-05-03T13:55:30.466Z,12.62
2019-05-03T13:56:35.380Z,12.32
2019-05-03T13:57:39.912Z,12.02
2019-05-03T13:58:44.657Z,12.25
2019-05-03T13:59:49.194Z,12.26
2019-05-03T14:00:54.960Z,12.00
2019-05-03T14:02:12.448Z,12.04
2019-05-03T14:03:05.861Z,11.93
2019-05-03T14:04:10.626Z,12.07
2019-05-03T14:05:15.646Z,12.03
2019-05-03T14:06:20.125Z,12.06
2019-05-03T14:07:24.558Z,11.87
2019-05-03T14:08:28.999Z,11.72
2019-05-03T14:09:34.832Z,11.69
2019-05-03T14:10:39.508Z,11.66
2019-05-03T14:11:44.842Z,11.73
2019-05-03T14:12:49.367Z,11.64
2019-05-03T14:13:55.211Z,11.87
2019-05-03T14:14:59.816Z,12.11
2019-05-03T14:16:05.540Z,12.27
2019-05-03T14:17:10.214Z,12.24
2019-05-03T14:18:15.464Z,12.71
2019-05-03T14:19:21.695Z,13.14
2019-05-03T14:20:45.811Z,13.13
2019-05-03T14:21:51.907Z,13.04
2019-05-03T14:22:56.345Z,13.18
2019-05-03T14:24:10.283Z,12.98
2019-05-03T14:25:15.263Z,12.94
2019-05-03T14:26:20.724Z,13.15
2019-05-03T14:27:25.528Z,13.18
2019-05-03T14:28:30.245Z,12.97
2019-05-03T14:29:34.846Z,12.66
2019-05-03T14:30:39.574Z,12.57
2019-05-03T14:31:45.330Z,12.60
2019-05-03T14:32:50.278Z,12.55